Time;durP1;ratioP1;P1;durP2;ratioP2;P2;SDS_P1;SDS_P2;PMS_P1;PMS_P2;Temp;Humidity;BMP_temperature;BMP_pressure;BME280_temperature;BME280_humidity;BME280_pressure;Samples;Min_cycle;Max_cycle;Signal;HPM_P1;HPM_P2
2022/10/13 00:01:56;;;;;;;19.63;13.00;;;8.70;99.90;;;;;;5008835;28;20037;-27
2022/10/13 00:04:22;;;;;;;15.48;12.85;;;8.80;99.90;;;;;;5011605;28;20038;-27
2022/10/13 00:06:48;;;;;;;21.10;13.93;;;8.80;99.90;;;;;;4998758;28;20542;-27
2022/10/13 00:09:14;;;;;;;16.73;12.98;;;8.90;99.90;;;;;;5003131;28;20117;-27
2022/10/13 00:11:39;;;;;;;21.17;13.00;;;8.90;99.90;;;;;;5009004;28;20053;-27
2022/10/13 00:14:05;;;;;;;20.23;14.23;;;9.00;99.90;;;;;;5016824;28;20414;-27
2022/10/13 00:16:31;;;;;;;16.80;12.75;;;8.90;99.90;;;;;;5012368;28;20529;-27
2022/10/13 00:18:58;;;;;;;17.13;13.13;;;9.00;99.90;;;;;;5026609;28;20033;-27
2022/10/13 00:21:26;;;;;;;20.92;14.63;;;9.00;99.90;;;;;;4989924;28;20057;-27
2022/10/13 00:23:53;;;;;;;22.80;14.85;;;9.00;99.90;;;;;;5024388;28;20127;-27
2022/10/13 00:26:21;;;;;;;22.70;13.88;;;9.10;99.90;;;;;;5019152;28;20042;-27
2022/10/13 00:28:47;;;;;;;21.48;13.88;;;9.10;99.90;;;;;;5000945;28;20037;-27
2022/10/13 00:31:24;;;;;;;20.88;13.98;;;9.10;99.90;;;;;;5022741;28;20383;-27
2022/10/13 00:33:51;;;;;;;19.63;14.27;;;9.20;99.90;;;;;;5006583;28;20504;-27
2022/10/13 00:36:18;;;;;;;23.23;14.60;;;9.20;99.90;;;;;;5000294;28;20491;-27
2022/10/13 00:38:44;;;;;;;19.33;13.85;;;9.20;99.90;;;;;;5011453;28;20180;-27
2022/10/13 00:41:10;;;;;;;19.17;13.88;;;9.30;99.90;;;;;;5006473;28;20045;-27
2022/10/13 00:43:59;;;;;;;21.17;14.25;;;9.30;99.90;;;;;;5005769;28;20029;-27
2022/10/13 00:46:32;;;;;;;20.65;13.90;;;9.30;99.90;;;;;;5004976;28;20041;-27
2022/10/13 00:49:06;;;;;;;21.67;13.82;;;9.40;99.90;;;;;;5000062;28;20045;-27
2022/10/13 00:51:39;;;;;;;18.73;13.77;;;9.50;99.90;;;;;;5007403;28;20103;-27
2022/10/13 00:54:08;;;;;;;19.38;14.60;;;9.50;99.90;;;;;;5031262;28;20065;-27
2022/10/13 00:56:35;;;;;;;19.00;13.25;;;9.50;99.90;;;;;;5022116;28;20044;-27
2022/10/13 00:59:04;;;;;;;23.30;14.25;;;9.50;99.90;;;;;;5014786;28;20431;-27
2022/10/13 01:01:30;;;;;;;16.95;12.77;;;9.50;99.90;;;;;;5004954;28;20046;-27
2022/10/13 01:03:56;;;;;;;21.52;13.52;;;9.50;99.90;;;;;;5005032;28;20399;-27
2022/10/13 01:06:22;;;;;;;21.90;15.00;;;9.60;99.90;;;;;;5011912;28;20049;-27
2022/10/13 01:08:48;;;;;;;20.77;14.27;;;9.60;99.90;;;;;;5031854;28;20479;-27
2022/10/13 01:11:41;;;;;;;24.40;14.93;;;9.50;99.90;;;;;;4994108;28;20129;-27
2022/10/13 01:14:35;;;;;;;27.98;15.07;;;9.50;99.90;;;;;;5007727;28;20294;-27
2022/10/13 01:17:33;;;;;;;22.92;14.80;;;9.60;99.90;;;;;;5002092;28;20049;-27
2022/10/13 01:20:25;;;;;;;20.70;13.68;;;9.50;99.90;;;;;;5007393;28;20125;-27
2022/10/13 01:23:25;;;;;;;23.23;14.38;;;9.50;99.90;;;;;;5026250;28;20046;-27
2022/10/13 01:26:19;;;;;;;21.13;14.57;;;9.50;99.90;;;;;;5024385;28;20076;-27
2022/10/13 01:29:03;;;;;;;23.52;14.18;;;9.50;99.90;;;;;;5007260;28;20029;-27
2022/10/13 01:31:34;;;;;;;;;;;9.40;99.90;;;;;;5023896;28;20037;-27
2022/10/13 01:34:12;;;;;;;22.42;14.10;;;9.40;99.90;;;;;;5024461;28;19960;-27
2022/10/13 01:37:09;;;;;;;20.48;13.85;;;9.30;99.90;;;;;;4996317;28;20490;-27
2022/10/13 01:39:38;;;;;;;20.95;14.85;;;9.30;99.90;;;;;;4997754;28;20040;-27
2022/10/13 01:42:13;;;;;;;18.80;13.43;;;9.30;99.90;;;;;;5007640;28;20144;-27
2022/10/13 01:44:45;;;;;;;21.02;14.20;;;9.40;99.90;;;;;;5007226;28;20037;-27
2022/10/13 01:47:14;;;;;;;20.88;14.95;;;9.30;99.90;;;;;;5005557;28;20049;-27
2022/10/13 01:49:42;;;;;;;21.33;14.85;;;9.30;99.90;;;;;;5002385;28;20118;-27
2022/10/13 01:52:14;;;;;;;23.75;14.70;;;9.30;99.90;;;;;;5007092;28;20042;-28
2022/10/13 01:54:40;;;;;;;18.70;13.45;;;9.30;99.90;;;;;;5026436;28;20038;-27
2022/10/13 01:57:31;;;;;;;23.63;14.95;;;9.30;99.90;;;;;;4999926;28;20057;-27
2022/10/13 02:00:03;;;;;;;21.90;14.07;;;9.30;99.90;;;;;;5012328;28;20124;-27
2022/10/13 02:02:42;;;;;;;22.50;15.25;;;9.30;99.90;;;;;;5013436;28;20037;-27
2022/10/13 02:05:42;;;;;;;22.33;16.00;;;9.40;99.90;;;;;;4989377;28;20045;-27
2022/10/13 02:08:23;;;;;;;26.02;15.63;;;9.40;99.90;;;;;;5009743;28;20037;-27
2022/10/13 02:11:15;;;;;;;21.92;15.18;;;9.40;99.90;;;;;;5019430;28;20041;-27
2022/10/13 02:14:05;;;;;;;25.92;14.70;;;9.50;99.90;;;;;;5008359;28;20092;-27
2022/10/13 02:16:35;;;;;;;21.48;14.85;;;9.50;99.90;;;;;;5004659;28;20039;-27
2022/10/13 02:19:03;;;;;;;24.45;14.65;;;9.50;99.90;;;;;;4989506;28;20417;-27
2022/10/13 02:21:30;;;;;;;27.83;15.65;;;9.50;99.90;;;;;;5010193;28;20433;-27
2022/10/13 02:23:56;;;;;;;19.63;14.65;;;9.50;99.90;;;;;;4991974;28;20052;-27
2022/10/13 02:26:36;;;;;;;23.27;14.15;;;9.50;99.90;;;;;;4988179;28;20051;-25
2022/10/13 02:29:11;;;;;;;20.42;14.15;;;9.50;99.90;;;;;;4997042;28;20045;-25
2022/10/13 02:31:38;;;;;;;22.70;14.48;;;9.50;99.90;;;;;;4993215;28;20046;-25
2022/10/13 02:34:05;;;;;;;22.15;15.32;;;9.60;99.90;;;;;;4996036;28;20041;-25
2022/10/13 02:36:31;;;;;;;22.17;14.50;;;9.50;99.90;;;;;;5013494;28;20064;-25
2022/10/13 02:38:57;;;;;;;20.02;14.25;;;9.50;99.90;;;;;;5013526;28;20128;-25
2022/10/13 02:41:24;;;;;;;23.08;14.93;;;9.50;99.90;;;;;;4988647;28;20065;-25
2022/10/13 02:43:49;;;;;;;20.83;13.75;;;9.50;99.90;;;;;;5011299;28;20399;-25
2022/10/13 02:46:15;;;;;;;21.77;14.40;;;9.50;99.90;;;;;;5000799;28;20049;-25
2022/10/13 02:48:41;;;;;;;22.33;15.50;;;9.50;99.90;;;;;;5017630;28;20033;-25
2022/10/13 02:51:07;;;;;;;20.92;14.63;;;9.60;99.90;;;;;;5017283;28;20426;-25
2022/10/13 02:53:36;;;;;;;23.50;14.63;;;9.70;99.90;;;;;;5017553;28;20041;-25
2022/10/13 02:56:02;;;;;;;21.00;14.55;;;9.70;99.90;;;;;;5017225;28;20490;-25
2022/10/13 02:58:28;;;;;;;27.15;15.13;;;9.70;99.90;;;;;;5012918;28;20120;-25
2022/10/13 03:00:54;;;;;;;20.30;13.88;;;9.80;99.90;;;;;;5011831;28;20076;-25
2022/10/13 03:03:20;;;;;;;18.08;13.70;;;9.70;99.90;;;;;;5014118;28;20038;-25
2022/10/13 03:05:45;;;;;;;23.65;15.13;;;9.80;99.90;;;;;;5000270;28;20045;-25
2022/10/13 03:08:11;;;;;;;18.75;14.52;;;9.80;99.90;;;;;;5008657;28;20041;-25
2022/10/13 03:10:37;;;;;;;20.48;14.60;;;9.90;99.90;;;;;;4996552;28;20069;-25
2022/10/13 03:13:03;;;;;;;25.15;14.93;;;9.90;99.90;;;;;;4999229;28;20100;-25
2022/10/13 03:15:29;;;;;;;21.05;14.38;;;9.90;99.90;;;;;;5014073;28;20041;-25
2022/10/13 03:17:55;;;;;;;20.27;12.95;;;10.00;99.90;;;;;;5006480;28;20128;-25
2022/10/13 03:20:22;;;;;;;21.75;14.85;;;10.00;99.90;;;;;;5013774;28;20041;-25
2022/10/13 03:22:50;;;;;;;21.33;13.82;;;10.00;99.90;;;;;;5033196;28;20041;-25
2022/10/13 03:25:18;;;;;;;19.63;14.27;;;10.00;99.90;;;;;;5013009;28;20092;-25
2022/10/13 03:27:43;;;;;;;23.13;14.98;;;10.10;99.90;;;;;;5016698;28;20123;-25
2022/10/13 03:30:10;;;;;;;21.17;14.50;;;10.10;99.90;;;;;;5016475;28;20440;-25
2022/10/13 03:32:36;;;;;;;22.83;14.15;;;10.10;99.90;;;;;;4987066;28;20495;-25
2022/10/13 03:35:02;;;;;;;22.48;15.25;;;10.10;99.90;;;;;;5011976;28;20072;-25
2022/10/13 03:37:29;;;;;;;24.23;15.90;;;10.20;99.90;;;;;;5005515;28;20041;-25
2022/10/13 03:39:56;;;;;;;22.13;15.27;;;10.20;99.90;;;;;;5015875;28;20107;-25
2022/10/13 03:42:22;;;;;;;23.45;14.90;;;10.20;99.90;;;;;;5014469;28;20042;-25
2022/10/13 03:44:48;;;;;;;22.48;15.02;;;10.20;99.90;;;;;;5000087;28;20088;-25
2022/10/13 03:47:14;;;;;;;21.92;15.77;;;10.20;99.90;;;;;;4999450;28;20077;-25
2022/10/13 03:49:39;;;;;;;20.75;16.42;;;10.20;99.90;;;;;;5015963;28;20041;-25
2022/10/13 03:52:06;;;;;;;25.52;16.60;;;10.20;99.90;;;;;;5012515;28;20060;-25
2022/10/13 03:54:32;;;;;;;23.15;15.63;;;10.20;99.90;;;;;;5014501;28;20495;-25
2022/10/13 03:56:59;;;;;;;22.08;15.55;;;10.20;99.90;;;;;;5012376;28;20042;-25
2022/10/13 03:59:26;;;;;;;21.23;16.65;;;10.20;99.90;;;;;;5012354;28;20033;-25
2022/10/13 04:01:52;;;;;;;21.60;15.95;;;10.20;99.90;;;;;;5005720;28;20053;-25
2022/10/13 04:04:21;;;;;;;22.02;15.57;;;10.20;99.90;;;;;;5009920;28;20049;-25
2022/10/13 04:06:47;;;;;;;21.77;16.13;;;10.20;99.90;;;;;;4978549;28;20041;-25
2022/10/13 04:09:13;;;;;;;22.65;16.20;;;10.20;99.90;;;;;;5007383;28;20051;-25
2022/10/13 04:11:40;;;;;;;23.60;16.75;;;10.20;99.90;;;;;;4995136;28;20038;-25
2022/10/13 04:14:06;;;;;;;21.95;15.80;;;10.20;99.90;;;;;;5025312;28;20431;-25
2022/10/13 04:16:32;;;;;;;28.20;16.80;;;10.20;99.90;;;;;;5010947;28;20117;-25
2022/10/13 04:19:03;;;;;;;21.42;15.73;;;10.20;99.90;;;;;;5029085;28;20044;-25
2022/10/13 04:21:32;;;;;;;22.45;17.65;;;10.10;99.90;;;;;;4999420;28;20049;-25
2022/10/13 04:23:59;;;;;;;23.70;16.88;;;10.10;99.90;;;;;;5008496;28;20144;-25
2022/10/13 04:26:28;;;;;;;20.40;16.30;;;10.00;99.90;;;;;;5008012;28;20450;-26
2022/10/13 04:28:54;;;;;;;27.60;19.27;;;10.10;99.90;;;;;;5015650;28;20037;-25
2022/10/13 04:31:22;;;;;;;26.17;16.90;;;10.00;99.90;;;;;;5014839;28;20037;-25
2022/10/13 04:33:49;;;;;;;22.67;16.17;;;10.00;99.90;;;;;;5014127;28;20462;-25
2022/10/13 04:36:16;;;;;;;21.77;16.35;;;10.00;99.90;;;;;;5015263;28;20033;-25
2022/10/13 04:38:42;;;;;;;24.42;17.60;;;10.00;99.90;;;;;;5001605;28;20359;-25
2022/10/13 04:41:09;;;;;;;20.85;16.30;;;10.00;99.90;;;;;;5015583;28;20360;-25
2022/10/13 04:43:35;;;;;;;23.58;15.85;;;10.10;99.90;;;;;;5015473;28;20037;-25
2022/10/13 04:46:02;;;;;;;23.45;17.63;;;10.10;99.90;;;;;;5027824;28;20140;-25
2022/10/13 04:48:28;;;;;;;24.98;16.13;;;10.10;99.90;;;;;;5002997;28;20037;-25
2022/10/13 04:51:12;;;;;;;23.35;15.68;;;10.10;99.90;;;;;;5008981;28;20046;-25
2022/10/13 04:53:39;;;;;;;23.58;15.95;;;10.10;99.90;;;;;;5008568;28;20390;-25
2022/10/13 04:56:08;;;;;;;24.38;16.88;;;10.10;99.90;;;;;;5010821;28;20030;-25
2022/10/13 04:58:36;;;;;;;25.13;16.23;;;10.10;99.90;;;;;;5024281;28;20603;-25
2022/10/13 05:01:04;;;;;;;23.70;16.92;;;10.10;99.90;;;;;;5032516;28;20403;-25
2022/10/13 05:03:30;;;;;;;24.42;16.15;;;10.10;99.90;;;;;;5006741;28;20933;-25
2022/10/13 05:05:56;;;;;;;26.58;17.48;;;10.10;99.90;;;;;;5014458;28;20080;-25
2022/10/13 05:08:22;;;;;;;25.48;17.15;;;10.20;99.90;;;;;;5003241;28;20056;-25
2022/10/13 05:10:59;;;;;;;24.17;16.75;;;10.20;99.90;;;;;;5013671;28;20052;-25
2022/10/13 05:13:27;;;;;;;23.17;17.50;;;10.20;99.90;;;;;;5010953;28;20076;-25
2022/10/13 05:15:53;;;;;;;25.52;16.98;;;10.20;99.90;;;;;;4989658;28;20042;-25
2022/10/13 05:18:19;;;;;;;23.48;17.13;;;10.20;99.90;;;;;;4986892;28;20036;-25
2022/10/13 05:20:45;;;;;;;23.42;16.60;;;10.20;99.90;;;;;;5025971;28;20168;-25
2022/10/13 05:23:11;;;;;;;23.63;17.35;;;10.20;99.90;;;;;;4993173;28;20094;-25
2022/10/13 05:25:38;;;;;;;27.95;18.75;;;10.20;99.90;;;;;;5029501;28;20033;-25
2022/10/13 05:28:05;;;;;;;23.90;17.05;;;10.20;99.90;;;;;;5024226;28;20116;-25
2022/10/13 05:30:32;;;;;;;21.73;16.63;;;10.10;99.90;;;;;;4989690;28;20042;-27
2022/10/13 05:32:58;;;;;;;21.17;14.95;;;10.10;99.90;;;;;;5027055;28;20041;-27
2022/10/13 05:35:25;;;;;;;23.50;17.48;;;10.10;99.90;;;;;;5011027;28;20045;-27
2022/10/13 05:37:51;;;;;;;21.00;16.70;;;10.10;99.90;;;;;;5014026;28;20040;-27
2022/10/13 05:40:20;;;;;;;27.95;17.95;;;10.00;99.90;;;;;;5011584;28;20045;-27
2022/10/13 05:42:48;;;;;;;27.55;16.10;;;10.10;99.90;;;;;;5012434;28;20128;-27
2022/10/13 05:45:13;;;;;;;23.20;17.23;;;10.10;99.90;;;;;;5013315;28;20044;-27
2022/10/13 05:47:39;;;;;;;23.88;17.45;;;10.10;99.90;;;;;;5001844;28;20108;-27
2022/10/13 05:50:06;;;;;;;23.02;17.05;;;10.10;99.90;;;;;;5009829;28;20045;-27
2022/10/13 05:52:33;;;;;;;22.15;17.08;;;10.00;99.90;;;;;;5021851;28;20048;-27
2022/10/13 05:55:09;;;;;;;24.67;17.13;;;10.00;99.90;;;;;;5008384;28;20030;-28
2022/10/13 05:57:45;;;;;;;23.92;17.23;;;10.00;99.90;;;;;;5004744;28;20083;-27
2022/10/13 06:00:15;;;;;;;27.77;20.08;;;10.00;99.90;;;;;;5008943;28;20038;-27
2022/10/13 06:02:52;;;;;;;31.85;22.88;;;10.00;99.90;;;;;;5005776;28;20056;-28
2022/10/13 06:05:22;;;;;;;29.58;19.05;;;10.00;99.90;;;;;;5009791;28;20045;-28
2022/10/13 06:07:48;;;;;;;27.42;18.77;;;10.10;99.90;;;;;;5025801;28;20041;-28
2022/10/13 06:10:15;;;;;;;26.95;17.48;;;10.10;99.90;;;;;;5022203;28;20041;-28
2022/10/13 06:12:41;;;;;;;23.45;17.50;;;10.10;99.90;;;;;;4992412;28;20387;-27
2022/10/13 06:15:08;;;;;;;22.48;17.35;;;10.10;99.90;;;;;;5013155;28;20037;-28
2022/10/13 06:17:38;;;;;;;22.77;18.02;;;10.10;99.90;;;;;;5005195;28;20041;-27
2022/10/13 06:20:05;;;;;;;27.00;18.73;;;10.10;99.90;;;;;;5014613;28;20513;-27
2022/10/13 06:22:32;;;;;;;28.73;19.42;;;10.10;99.90;;;;;;5017103;28;20041;-27
2022/10/13 06:24:58;;;;;;;28.65;18.77;;;10.10;99.90;;;;;;5001087;28;20049;-27
2022/10/13 06:27:23;;;;;;;26.55;17.65;;;10.10;99.90;;;;;;5010724;28;20478;-28
2022/10/13 06:29:49;;;;;;;26.95;19.08;;;10.10;99.90;;;;;;5025170;28;20030;-27
2022/10/13 06:32:15;;;;;;;27.00;18.33;;;10.20;99.90;;;;;;5005101;28;20041;-27
2022/10/13 06:34:41;;;;;;;24.38;19.88;;;10.10;99.90;;;;;;5026527;28;20040;-27
2022/10/13 06:37:08;;;;;;;28.15;18.73;;;10.20;99.90;;;;;;4997507;28;20033;-27
2022/10/13 06:39:34;;;;;;;29.58;21.17;;;10.20;99.90;;;;;;5004945;28;20479;-28
2022/10/13 06:42:00;;;;;;;22.00;17.58;;;10.20;99.90;;;;;;5010905;28;20033;-28
2022/10/13 06:44:26;;;;;;;24.13;18.08;;;10.30;99.90;;;;;;5034013;28;20053;-28
2022/10/13 06:46:52;;;;;;;25.52;18.98;;;10.30;99.90;;;;;;5000545;28;20049;-27
2022/10/13 06:49:18;;;;;;;24.55;18.67;;;10.30;99.90;;;;;;5013573;28;20491;-27
2022/10/13 06:51:44;;;;;;;29.10;20.30;;;10.30;99.90;;;;;;5004757;28;20132;-27
2022/10/13 06:54:10;;;;;;;27.58;18.58;;;10.40;99.90;;;;;;5008564;28;20169;-27
2022/10/13 06:56:36;;;;;;;28.25;20.00;;;10.40;99.90;;;;;;5013386;28;20399;-27
2022/10/13 06:59:02;;;;;;;26.63;18.67;;;10.50;99.90;;;;;;4991875;28;20044;-27
2022/10/13 07:01:28;;;;;;;28.40;18.63;;;10.50;99.90;;;;;;5014327;28;20569;-27
2022/10/13 07:03:55;;;;;;;25.10;18.73;;;10.60;99.90;;;;;;4995756;28;20394;-27
2022/10/13 07:06:23;;;;;;;28.00;19.15;;;10.60;99.90;;;;;;5008601;28;20041;-28
2022/10/13 07:08:49;;;;;;;27.63;19.30;;;10.70;99.90;;;;;;5005860;28;20125;-27
2022/10/13 07:11:17;;;;;;;23.33;18.13;;;10.70;99.90;;;;;;5025814;28;20125;-27
2022/10/13 07:13:44;;;;;;;26.88;18.90;;;10.80;99.90;;;;;;5005788;28;20041;-27
2022/10/13 07:16:11;;;;;;;28.00;19.23;;;10.80;99.90;;;;;;5010011;28;20037;-27
2022/10/13 07:18:37;;;;;;;26.23;18.02;;;10.90;99.90;;;;;;4999712;28;20069;-27
2022/10/13 07:21:05;;;;;;;24.02;17.95;;;10.90;99.90;;;;;;5015612;28;20045;-27
2022/10/13 07:23:31;;;;;;;26.50;18.50;;;11.00;99.90;;;;;;5009123;28;20068;-27
2022/10/13 07:25:59;;;;;;;28.90;19.15;;;11.00;99.90;;;;;;5010245;28;20072;-27
2022/10/13 07:28:26;;;;;;;23.73;17.13;;;11.10;99.90;;;;;;5002242;28;20048;-27
2022/10/13 07:30:52;;;;;;;25.67;18.65;;;11.20;99.90;;;;;;5008110;28;20443;-28
2022/10/13 07:33:19;;;;;;;24.38;18.42;;;11.20;99.90;;;;;;4995578;28;20072;-28
2022/10/13 07:35:45;;;;;;;27.60;19.73;;;11.30;99.90;;;;;;5012795;28;20403;-28
2022/10/13 07:38:11;;;;;;;30.17;19.73;;;11.30;99.90;;;;;;5009943;28;20646;-29
2022/10/13 07:40:37;;;;;;;23.75;17.70;;;11.30;99.90;;;;;;5011036;28;20030;-28
2022/10/13 07:43:04;;;;;;;24.33;17.77;;;11.40;99.90;;;;;;5005839;28;20510;-28
2022/10/13 07:45:30;;;;;;;24.10;18.10;;;11.50;99.90;;;;;;5030725;28;20042;-28
2022/10/13 07:47:56;;;;;;;25.55;18.92;;;11.50;99.90;;;;;;5016474;28;20521;-28
2022/10/13 07:50:22;;;;;;;24.33;17.80;;;11.60;99.90;;;;;;5031647;28;20045;-28
2022/10/13 07:52:48;;;;;;;30.75;19.55;;;11.70;99.90;;;;;;4994896;28;20048;-28
2022/10/13 07:55:14;;;;;;;25.55;19.00;;;11.80;99.90;;;;;;4995077;28;20095;-28
2022/10/13 07:57:44;;;;;;;27.48;18.02;;;11.90;99.90;;;;;;4996886;28;20044;-28
2022/10/13 08:00:11;;;;;;;26.50;18.67;;;12.00;99.90;;;;;;5010293;28;20044;-28
2022/10/13 08:02:39;;;;;;;28.40;19.75;;;12.00;99.90;;;;;;5011877;28;20302;-28
2022/10/13 08:05:06;;;;;;;24.58;18.50;;;12.10;99.90;;;;;;5013592;28;20128;-28
2022/10/13 08:07:32;;;;;;;28.92;20.33;;;12.20;99.90;;;;;;5013474;28;20030;-28
2022/10/13 08:09:58;;;;;;;22.10;18.10;;;12.20;99.90;;;;;;5012507;28;20068;-28
2022/10/13 08:12:25;;;;;;;29.38;19.20;;;12.20;99.90;;;;;;5017758;28;20042;-28
2022/10/13 08:14:51;;;;;;;29.98;18.83;;;12.30;99.90;;;;;;4999306;28;20040;-28
2022/10/13 08:17:18;;;;;;;24.15;17.35;;;12.40;99.90;;;;;;5020196;28;20037;-28
2022/10/13 08:19:45;;;;;;;24.90;17.35;;;12.50;99.90;;;;;;5000913;28;20065;-28
2022/10/13 08:22:17;;;;;;;24.20;17.70;;;12.60;99.90;;;;;;4997975;28;20091;-28
2022/10/13 08:24:48;;;;;;;24.45;17.77;;;12.70;99.90;;;;;;5018644;28;20033;-28
2022/10/13 08:27:20;;;;;;;24.83;18.40;;;12.80;99.90;;;;;;5012153;28;20089;-28
2022/10/13 08:29:49;;;;;;;25.88;19.55;;;12.80;99.90;;;;;;4991952;28;20584;-28
2022/10/13 08:32:31;;;;;;;24.42;17.13;;;12.80;99.90;;;;;;5017561;28;20052;-28
2022/10/13 08:34:58;;;;;;;24.37;18.17;;;12.90;99.90;;;;;;5002816;28;20033;-28
2022/10/13 08:37:30;;;;;;;23.15;18.83;;;12.90;99.90;;;;;;5010409;28;20284;-28
2022/10/13 08:39:57;;;;;;;20.67;17.30;;;13.00;99.90;;;;;;5028418;28;20045;-28
2022/10/13 08:49:45;;;;;;;27.33;19.20;;;13.40;99.90;;;;;;5076689;22;20062;-84
2022/10/13 08:52:23;;;;;;;30.65;19.13;;;13.30;99.90;;;;;;5069132;28;20127;-84
2022/10/13 08:54:53;;;;;;;23.95;17.23;;;13.30;99.90;;;;;;5058161;28;20616;-84
2022/10/13 08:57:19;;;;;;;23.00;17.27;;;13.30;99.90;;;;;;5039916;28;20036;-85
2022/10/13 08:59:52;;;;;;;24.52;17.85;;;13.30;99.90;;;;;;5058310;28;20044;-84
2022/10/13 09:02:29;;;;;;;24.00;18.10;;;13.30;99.90;;;;;;5057920;28;20043;-84
2022/10/13 09:05:01;;;;;;;27.63;17.17;;;13.30;99.90;;;;;;5056103;28;20025;-84
2022/10/13 09:07:32;;;;;;;22.10;17.23;;;13.40;99.90;;;;;;5058059;28;20089;-85
2022/10/13 09:09:57;;;;;;;20.80;16.35;;;13.40;99.90;;;;;;5056257;28;20033;-84
2022/10/13 09:12:24;;;;;;;24.98;17.20;;;13.50;99.90;;;;;;5042496;28;20113;-84
2022/10/13 09:15:01;;;;;;;27.30;18.02;;;13.60;99.90;;;;;;5061091;28;20039;-83
2022/10/13 09:17:29;;;;;;;25.52;17.38;;;13.60;99.90;;;;;;5056246;28;20036;-84
2022/10/13 09:20:06;;;;;;;27.63;18.00;;;13.60;99.90;;;;;;5038374;28;20040;-84
2022/10/13 09:23:02;;;;;;;23.85;17.08;;;13.60;99.90;;;;;;5059606;28;20095;-86
2022/10/13 09:26:51;;;;;;;25.90;17.35;;;13.60;99.90;;;;;;5056360;28;20398;-87
2022/10/13 09:29:18;;;;;;;26.27;17.13;;;13.50;99.90;;;;;;5046574;28;20142;-87
2022/10/13 09:31:45;;;;;;;22.50;16.58;;;13.50;99.90;;;;;;5046816;28;20048;-84
2022/10/13 09:34:22;;;;;;;20.73;16.92;;;13.50;99.90;;;;;;5032259;28;20044;-84
2022/10/13 09:37:19;;;;;;;22.65;15.93;;;13.50;99.90;;;;;;5059915;28;20424;-88
2022/10/13 09:39:45;;;;;;;20.27;16.50;;;13.60;99.90;;;;;;5060469;28;20044;-87
2022/10/13 09:42:27;;;;;;;25.30;17.33;;;13.60;99.90;;;;;;5060277;28;20043;-87
2022/10/13 09:45:17;;;;;;;23.83;16.73;;;13.60;99.90;;;;;;5054381;28;20053;-87
2022/10/13 09:47:56;;;;;;;25.02;17.75;;;13.70;99.90;;;;;;5051904;28;20029;-88
2022/10/13 09:50:47;;;;;;;23.42;17.33;;;13.80;99.90;;;;;;5037462;28;20051;-86
2022/10/13 09:54:10;;;;;;;23.75;17.00;;;13.80;99.90;;;;;;5061222;28;20037;-86
2022/10/13 09:56:50;;;;;;;27.65;16.45;;;13.90;99.90;;;;;;5036577;28;20040;-84
2022/10/13 09:59:22;;;;;;;;;;;14.00;99.90;;;;;;5051796;28;20519;-84
2022/10/13 10:01:50;;;;;;;23.38;17.95;;;14.10;99.90;;;;;;5075144;28;19924;-85
2022/10/13 10:04:20;;;;;;;24.65;17.58;;;14.10;99.90;;;;;;5051345;28;20444;-84
2022/10/13 10:06:46;;;;;;;26.60;19.08;;;14.00;99.90;;;;;;5045366;28;20130;-85
2022/10/13 10:09:24;;;;;;;28.33;19.73;;;14.00;99.90;;;;;;5055913;28;20058;-84
2022/10/13 10:11:53;;;;;;;26.13;19.55;;;14.00;99.90;;;;;;5030917;28;20044;-85
2022/10/13 10:14:30;;;;;;;29.50;20.48;;;14.00;99.90;;;;;;5071401;28;20056;-85
2022/10/13 10:17:19;;;;;;;28.38;20.42;;;13.90;99.90;;;;;;5032150;28;20051;-85
2022/10/13 10:20:01;;;;;;;28.98;20.27;;;13.90;99.90;;;;;;5066078;28;20117;-85
2022/10/13 10:22:32;;;;;;;28.10;19.95;;;14.00;99.90;;;;;;5031996;28;20072;-84
2022/10/13 10:25:07;;;;;;;28.67;20.38;;;14.00;99.90;;;;;;5045792;28;20037;-84
2022/10/13 10:27:44;;;;;;;26.75;20.92;;;14.00;99.90;;;;;;5034700;28;20044;-85
2022/10/13 10:30:18;;;;;;;28.73;21.02;;;14.20;99.90;;;;;;5034689;28;20044;-85
2022/10/13 10:33:29;;;;;;;31.98;22.25;;;14.20;99.90;;;;;;5035066;28;20052;-85
2022/10/13 10:36:05;;;;;;;26.55;21.40;;;14.40;99.90;;;;;;4962114;28;20039;-86
2022/10/13 10:38:50;;;;;;;26.45;20.85;;;14.60;99.90;;;;;;4933282;28;20110;-87
2022/10/13 10:41:47;;;;;;;26.65;20.75;;;14.80;99.90;;;;;;5019304;28;20048;-87
2022/10/13 10:44:38;;;;;;;26.27;20.02;;;15.00;99.90;;;;;;5037829;28;20121;-83
2022/10/13 10:47:18;;;;;;;25.50;19.67;;;15.00;99.90;;;;;;5053090;28;20474;-83
2022/10/13 10:49:45;;;;;;;25.20;19.58;;;15.00;99.90;;;;;;5051942;28;20045;-83
2022/10/13 10:52:49;;;;;;;26.55;20.30;;;14.90;99.90;;;;;;5055340;28;20076;-83
2022/10/13 10:55:48;;;;;;;26.15;21.00;;;14.80;99.90;;;;;;5056817;28;20032;-84
2022/10/13 10:58:19;;;;;;;26.15;20.65;;;14.90;99.90;;;;;;5041197;23;20073;-29
2022/10/13 11:00:51;;;;;;;25.70;19.88;;;14.90;99.90;;;;;;5017190;28;20033;-32
2022/10/13 11:03:24;;;;;;;29.05;19.55;;;14.90;99.90;;;;;;5022714;28;20049;-27
2022/10/13 11:06:02;;;;;;;25.13;19.13;;;14.90;99.90;;;;;;5014455;28;20034;-27
2022/10/13 11:08:38;;;;;;;26.65;20.02;;;14.90;99.90;;;;;;5014970;28;20037;-27
2022/10/13 11:11:29;;;;;;;28.95;20.27;;;14.90;99.90;;;;;;5014312;28;20088;-28
2022/10/13 11:14:04;;;;;;;24.98;20.40;;;14.90;99.90;;;;;;5014793;28;20038;-26
2022/10/13 11:16:58;;;;;;;25.63;20.48;;;14.80;99.90;;;;;;5014319;28;20053;-29
2022/10/13 11:19:36;;;;;;;25.77;19.77;;;14.80;99.90;;;;;;5014848;28;20476;-28
2022/10/13 11:22:02;;;;;;;29.00;20.75;;;14.70;99.90;;;;;;5014901;28;20116;-28
2022/10/13 11:24:36;;;;;;;30.83;20.98;;;14.70;99.90;;;;;;5014636;28;20446;-30
2022/10/13 11:27:09;;;;;;;26.55;21.40;;;14.60;99.90;;;;;;5014387;28;20046;-28
2022/10/13 11:29:45;;;;;;;29.48;21.92;;;14.60;99.90;;;;;;5014532;28;20116;-27
2022/10/13 11:35:00;;;;;;;27.95;21.55;;;14.50;99.90;;;;;;5015408;28;20069;-28
2022/10/13 11:37:49;;;;;;;;;;;14.50;99.90;;;;;;5014415;28;20117;-28
2022/10/13 11:40:32;;;;;;;26.48;19.10;;;14.40;99.90;;;;;;4969147;28;19924;-28
2022/10/13 11:43:20;;;;;;;26.98;20.67;;;14.40;99.90;;;;;;5013802;28;20057;-28
2022/10/13 11:46:02;;;;;;;25.75;20.77;;;14.40;99.90;;;;;;5013935;28;20041;-27
2022/10/13 11:48:55;;;;;;;24.90;20.30;;;14.30;99.90;;;;;;5015028;28;20038;-29
2022/10/13 11:51:39;;;;;;;26.50;20.05;;;14.30;99.90;;;;;;4997395;28;20505;-27
2022/10/13 11:54:31;;;;;;;26.77;20.75;;;14.20;99.90;;;;;;5013879;28;20037;-27
2022/10/13 11:56:57;;;;;;;23.15;19.65;;;14.30;99.90;;;;;;5014852;28;20038;-28
2022/10/13 11:59:36;;;;;;;29.20;20.50;;;14.30;99.90;;;;;;5013778;28;20041;-28
2022/10/13 12:02:15;;;;;;;27.02;21.02;;;14.20;99.90;;;;;;5013662;28;20041;-28
2022/10/13 12:04:42;;;;;;;26.05;20.15;;;14.20;99.90;;;;;;5013503;28;20137;-28
2022/10/13 12:07:10;;;;;;;25.52;20.95;;;14.20;99.90;;;;;;5014506;28;20518;-28
2022/10/13 12:09:50;;;;;;;27.30;20.45;;;14.20;99.90;;;;;;5014417;28;20076;-28
2022/10/13 12:12:18;;;;;;;30.40;21.95;;;14.20;99.90;;;;;;4996653;28;20121;-28
2022/10/13 12:14:49;;;;;;;28.65;21.13;;;14.20;99.90;;;;;;5012919;28;20050;-26
2022/10/13 12:17:30;;;;;;;27.45;20.40;;;14.20;99.90;;;;;;5012670;28;20034;-27
2022/10/13 12:19:59;;;;;;;29.92;22.27;;;14.20;99.90;;;;;;5013321;28;20373;-28
2022/10/13 12:22:26;;;;;;;31.73;22.83;;;14.20;99.90;;;;;;5013164;28;20115;-26
2022/10/13 12:25:20;;;;;;;31.27;24.02;;;14.10;99.90;;;;;;5014369;28;20513;-28
2022/10/13 12:27:52;;;;;;;32.50;24.02;;;14.20;99.90;;;;;;5004973;28;20045;-27
2022/10/13 12:30:30;;;;;;;31.92;22.58;;;14.20;99.90;;;;;;5013114;28;20610;-27
2022/10/13 12:33:00;;;;;;;29.83;23.92;;;14.20;99.90;;;;;;4996954;28;20042;-27
2022/10/13 12:35:33;;;;;;;33.30;25.15;;;14.30;99.90;;;;;;5012767;28;20034;-27
2022/10/13 12:38:17;;;;;;;36.05;25.90;;;14.40;99.90;;;;;;5012722;28;20096;-27
2022/10/13 12:40:43;;;;;;;35.50;25.40;;;14.50;99.90;;;;;;5012712;28;20495;-27
2022/10/13 12:43:15;;;;;;;35.05;25.48;;;14.70;99.90;;;;;;5013871;28;20498;-27
2022/10/13 12:45:43;;;;;;;31.88;25.52;;;14.80;99.90;;;;;;5012574;28;20086;-27
2022/10/13 12:48:28;;;;;;;29.35;23.73;;;15.00;99.90;;;;;;5012649;28;20046;-28
2022/10/13 12:50:54;;;;;;;32.85;25.27;;;15.00;99.90;;;;;;5012549;28;20091;-27
2022/10/13 12:53:27;;;;;;;29.45;22.90;;;14.90;99.90;;;;;;5011666;28;20049;-28
2022/10/13 12:55:59;;;;;;;31.48;24.45;;;14.90;99.90;;;;;;4996482;28;20491;-29
2022/10/13 12:58:32;;;;;;;30.05;23.17;;;14.90;99.90;;;;;;5012278;28;20041;-28
2022/10/13 13:01:13;;;;;;;33.67;26.42;;;14.80;99.90;;;;;;5012265;28;20038;-27
2022/10/13 13:03:42;;;;;;;27.70;21.92;;;14.90;99.90;;;;;;4996104;28;20049;-29
2022/10/13 13:12:22;;;;;;;29.10;21.95;;;14.70;99.90;;;;;;5043884;28;20100;-32